createdAt,value
2016-05-24T00:00:37.482Z,0
2016-05-24T00:01:37.734Z,0
2016-05-24T00:02:37.488Z,0
2016-05-24T00:03:37.506Z,0
2016-05-24T00:04:37.509Z,0
2016-05-24T00:05:37.511Z,0
2016-05-24T00:06:37.514Z,0
2016-05-24T00:07:37.547Z,0
2016-05-24T00:08:37.534Z,0
2016-05-24T00:09:37.537Z,0
2016-05-24T00:10:37.540Z,0
2016-05-24T00:11:37.558Z,0
2016-05-24T00:12:37.545Z,0
2016-05-24T00:13:37.564Z,0
2016-05-24T00:14:37.597Z,0
2016-05-24T00:15:37.585Z,0
2016-05-24T00:16:37.572Z,0
2016-05-24T00:17:37.591Z,0
2016-05-24T00:18:37.593Z,0
2016-05-24T00:19:37.611Z,0
2016-05-24T00:20:37.614Z,0
2016-05-24T00:21:37.617Z,0
2016-05-24T00:22:37.619Z,0
2016-05-24T00:23:37.622Z,0
2016-05-24T00:24:37.640Z,0
2016-05-24T00:25:37.643Z,0
2016-05-24T00:26:37.332Z,0
2016-05-24T00:27:37.336Z,0
2016-05-24T00:28:37.666Z,0
2016-05-24T00:29:37.654Z,0
2016-05-24T00:30:37.656Z,0
2016-05-24T00:31:37.504Z,0
2016-05-24T00:32:53.302Z,0
2016-05-24T00:33:37.540Z,0
2016-05-24T00:34:37.682Z,0
2016-05-24T00:35:37.717Z,0
2016-05-24T00:36:37.703Z,0
2016-05-24T00:37:37.690Z,0
2016-05-24T00:38:37.709Z,0
2016-05-24T00:39:37.712Z,0
2016-05-24T00:40:37.731Z,0
2016-05-24T00:41:37.748Z,0
2016-05-24T00:42:37.736Z,0
2016-05-24T00:43:37.613Z,0
2016-05-24T00:44:37.944Z,0
2016-05-24T00:45:37.759Z,0
2016-05-24T00:46:37.606Z,0
2016-05-24T00:47:37.467Z,0
2016-05-24T00:48:37.799Z,0
2016-05-24T00:49:37.786Z,0
2016-05-24T00:50:37.789Z,0
2016-05-24T00:51:37.791Z,0
2016-05-24T00:52:37.653Z,0
2016-05-24T00:53:37.796Z,0
2016-05-24T00:54:37.815Z,0
2016-05-24T00:55:37.661Z,0
2016-05-24T00:56:37.821Z,0
2016-05-24T00:57:37.823Z,0
2016-05-24T00:58:37.872Z,0
2016-05-24T00:59:38.359Z,0
2016-05-24T01:00:37.857Z,0
2016-05-24T01:01:37.748Z,0
2016-05-24T01:02:37.779Z,0
2016-05-24T01:03:37.811Z,0
2016-05-24T01:04:37.997Z,0
2016-05-24T01:05:38.052Z,0
2016-05-24T01:06:37.893Z,0
2016-05-24T01:07:38.061Z,0
2016-05-24T01:08:38.091Z,0
2016-05-24T01:09:37.932Z,0
2016-05-24T01:10:38.114Z,0
2016-05-24T01:11:38.120Z,0
2016-05-24T01:12:37.971Z,0
2016-05-24T01:13:38.133Z,0
2016-05-24T01:14:38.453Z,0
2016-05-24T01:15:37.849Z,0
2016-05-24T01:16:38.008Z,0
2016-05-24T01:17:38.028Z,0
2016-05-24T01:18:37.860Z,0
2016-05-24T01:19:38.191Z,0
2016-05-24T01:20:38.211Z,0
2016-05-24T01:21:38.043Z,0
2016-05-24T01:22:38.233Z,0
2016-05-24T01:23:38.221Z,0
2016-05-24T01:24:38.067Z,0
2016-05-24T01:25:38.227Z,0
2016-05-24T01:26:38.229Z,0
2016-05-24T01:27:38.092Z,0
2016-05-24T01:28:38.297Z,0
2016-05-24T01:29:38.458Z,0
2016-05-24T01:30:38.241Z,0
2016-05-24T01:31:38.261Z,0
2016-05-24T01:32:38.295Z,0
2016-05-24T01:33:38.281Z,0
2016-05-24T01:34:38.299Z,0
2016-05-24T01:35:38.130Z,0
2016-05-24T01:36:38.288Z,0
2016-05-24T01:37:38.308Z,0
2016-05-24T01:38:38.170Z,0
2016-05-24T01:39:38.157Z,0
2016-05-24T01:40:38.331Z,0
2016-05-24T01:41:38.318Z,0
2016-05-24T01:42:38.321Z,0
2016-05-24T01:43:38.229Z,0
2016-05-24T01:44:38.233Z,0
2016-05-24T01:45:38.235Z,0
2016-05-24T01:46:38.379Z,0
2016-05-24T01:47:38.209Z,0
2016-05-24T01:48:38.227Z,0
2016-05-24T01:49:38.277Z,0
2016-05-24T01:50:38.233Z,0
2016-05-24T01:51:38.407Z,0
2016-05-24T01:52:38.270Z,0
2016-05-24T01:53:38.256Z,0
2016-05-24T01:54:38.243Z,0
2016-05-24T01:55:38.246Z,0
2016-05-24T01:56:38.265Z,0
2016-05-24T01:57:38.423Z,0
2016-05-24T01:58:38.489Z,0
2016-05-24T01:59:38.523Z,0
2016-05-24T02:00:38.495Z,0
2016-05-24T02:01:38.450Z,0
2016-05-24T02:02:38.484Z,0
2016-05-24T02:03:38.455Z,0
2016-05-24T02:04:38.458Z,0
2016-05-24T02:05:38.476Z,0
2016-05-24T02:06:38.339Z,0
2016-05-24T02:07:38.498Z,0
2016-05-24T02:08:38.485Z,0
2016-05-24T02:09:38.518Z,0
2016-05-24T02:10:38.505Z,0
2016-05-24T02:11:38.508Z,0
2016-05-24T02:12:38.527Z,0
2016-05-24T02:13:38.530Z,0
2016-05-24T02:14:38.876Z,0
2016-05-24T02:15:38.550Z,0
2016-05-24T02:16:38.537Z,0
2016-05-24T02:17:38.555Z,0
2016-05-24T02:18:38.543Z,0
2016-05-24T02:19:38.560Z,0
2016-05-24T02:20:38.611Z,0
2016-05-24T02:21:38.441Z,0
2016-05-24T02:22:38.584Z,0
2016-05-24T02:23:38.587Z,0
2016-05-24T02:24:38.606Z,0
2016-05-24T02:25:38.609Z,0
2016-05-24T02:26:38.611Z,0
2016-05-24T02:27:38.614Z,0
2016-05-24T02:28:38.460Z,0
2016-05-24T02:29:39.057Z,0
2016-05-24T02:30:38.637Z,0
2016-05-24T02:31:38.640Z,0
2016-05-24T02:32:38.658Z,0
2016-05-24T02:33:38.520Z,0
2016-05-24T02:34:38.663Z,0
2016-05-24T02:35:38.683Z,0
2016-05-24T02:36:38.356Z,0
2016-05-24T02:37:38.688Z,0
2016-05-24T02:38:38.690Z,0
2016-05-24T02:39:38.693Z,0
2016-05-24T02:40:38.555Z,0
2016-05-24T02:41:38.542Z,0
2016-05-24T02:42:38.717Z,0
2016-05-24T02:43:38.719Z,0
2016-05-24T02:44:39.018Z,0
2016-05-24T02:45:38.646Z,0
2016-05-24T02:46:38.587Z,0
2016-05-24T02:47:38.636Z,0
2016-05-24T02:48:38.702Z,0
2016-05-24T02:49:38.501Z,0
2016-05-24T02:50:38.816Z,0
2016-05-24T02:51:38.553Z,0
2016-05-24T02:52:38.681Z,0
2016-05-24T02:53:38.731Z,0
2016-05-24T02:54:38.984Z,0
2016-05-24T02:55:38.798Z,0
2016-05-24T02:56:38.645Z,0
2016-05-24T02:57:38.804Z,0
2016-05-24T02:58:38.823Z,0
2016-05-24T02:59:39.028Z,0
2016-05-24T03:00:38.812Z,0
2016-05-24T03:01:38.814Z,0
2016-05-24T03:02:38.676Z,0
2016-05-24T03:03:38.836Z,0
2016-05-24T03:04:38.854Z,0
2016-05-24T03:05:38.872Z,0
2016-05-24T03:06:38.719Z,0
2016-05-24T03:07:38.722Z,0
2016-05-24T03:08:38.880Z,0
2016-05-24T03:09:38.883Z,0
2016-05-24T03:10:38.902Z,0
2016-05-24T03:11:38.732Z,0
2016-05-24T03:12:38.907Z,0
2016-05-24T03:13:38.909Z,0
2016-05-24T03:14:38.958Z,0
2016-05-24T03:15:38.915Z,0
2016-05-24T03:16:38.918Z,0
2016-05-24T03:17:38.921Z,0
2016-05-24T03:18:38.938Z,0
2016-05-24T03:19:38.940Z,0
2016-05-24T03:20:38.943Z,0
2016-05-24T03:21:38.649Z,0
2016-05-24T03:22:38.980Z,0
2016-05-24T03:23:38.968Z,0
2016-05-24T03:24:38.829Z,0
2016-05-24T03:25:38.832Z,0
2016-05-24T03:26:38.991Z,0
2016-05-24T03:27:38.993Z,0
2016-05-24T03:28:38.684Z,0
2016-05-24T03:29:39.015Z,0
2016-05-24T03:30:39.033Z,0
2016-05-24T03:31:38.692Z,0
2016-05-24T03:32:39.007Z,0
2016-05-24T03:33:39.009Z,0
2016-05-24T03:34:39.028Z,0
2016-05-24T03:35:39.031Z,0
2016-05-24T03:36:39.049Z,0
2016-05-24T03:37:38.928Z,0
2016-05-24T03:38:39.070Z,0
2016-05-24T03:39:39.073Z,0
2016-05-24T03:40:38.919Z,0
2016-05-24T03:41:39.078Z,0
2016-05-24T03:42:39.080Z,0
2016-05-24T03:43:38.959Z,0
2016-05-24T03:44:39.383Z,0
2016-05-24T03:45:38.980Z,0
2016-05-24T03:46:39.138Z,0
2016-05-24T03:47:38.954Z,0
2016-05-24T03:48:38.971Z,0
2016-05-24T03:49:39.132Z,0
2016-05-24T03:50:38.977Z,0
2016-05-24T03:51:38.840Z,0
2016-05-24T03:52:38.842Z,0
2016-05-24T03:53:39.143Z,0
2016-05-24T03:54:39.145Z,0
2016-05-24T03:55:39.038Z,0
2016-05-24T03:56:39.165Z,0
2016-05-24T03:57:39.028Z,0
2016-05-24T03:58:39.202Z,0
2016-05-24T03:59:39.345Z,0
2016-05-24T04:00:38.926Z,0
2016-05-24T04:01:39.226Z,0
2016-05-24T04:02:39.056Z,0
2016-05-24T04:03:39.231Z,0
2016-05-24T04:04:39.218Z,0
2016-05-24T04:05:39.237Z,0
2016-05-24T04:06:39.098Z,0
2016-05-24T04:07:39.273Z,0
2016-05-24T04:08:39.244Z,0
2016-05-24T04:09:39.138Z,0
2016-05-24T04:10:39.109Z,0
2016-05-24T04:11:38.972Z,0
2016-05-24T04:12:39.271Z,0
2016-05-24T04:13:38.961Z,0
2016-05-24T04:14:39.135Z,0
2016-05-24T04:15:38.997Z,0
2016-05-24T04:16:39.158Z,0
2016-05-24T04:17:39.144Z,0
2016-05-24T04:18:39.147Z,0
2016-05-24T04:19:39.321Z,0
2016-05-24T04:20:39.167Z,0
2016-05-24T04:21:39.327Z,0
2016-05-24T04:22:39.329Z,0
2016-05-24T04:23:39.332Z,0
2016-05-24T04:24:39.632Z,0
2016-05-24T04:25:39.353Z,0
2016-05-24T04:26:39.356Z,0
2016-05-24T04:27:39.358Z,0
2016-05-24T04:28:39.205Z,0
2016-05-24T04:29:39.067Z,0
2016-05-24T04:30:39.398Z,0
2016-05-24T04:31:39.228Z,0
2016-05-24T04:33:07.590Z,0
2016-05-24T04:33:39.390Z,0
2016-05-24T04:34:39.393Z,0
2016-05-24T04:35:39.411Z,0
2016-05-24T04:36:39.101Z,0
2016-05-24T04:37:39.416Z,0
2016-05-24T04:38:39.419Z,0
2016-05-24T04:39:39.422Z,0
2016-05-24T04:40:39.440Z,0
2016-05-24T04:41:39.286Z,0
2016-05-24T04:42:39.445Z,0
2016-05-24T04:43:39.447Z,5
2016-05-24T04:44:39.842Z,5
2016-05-24T04:45:40.516Z,5
2016-05-24T04:46:39.331Z,5
2016-05-24T04:47:39.318Z,5
2016-05-24T04:48:39.336Z,5
2016-05-24T04:49:39.510Z,5
2016-05-24T04:50:39.342Z,5
2016-05-24T04:51:39.361Z,5
2016-05-24T04:52:39.347Z,5
2016-05-24T04:53:39.381Z,5
2016-05-24T04:54:39.212Z,5
2016-05-24T04:55:39.527Z,5
2016-05-24T04:56:39.530Z,5
2016-05-24T04:57:39.393Z,0
2016-05-24T04:58:39.551Z,5
2016-05-24T04:59:39.412Z,5
2016-05-24T05:00:39.401Z,5
2016-05-24T05:01:39.575Z,5
2016-05-24T05:02:39.421Z,5
2016-05-24T05:03:39.581Z,5
2016-05-24T05:04:39.583Z,5
2016-05-24T05:05:39.586Z,5
2016-05-24T05:06:39.603Z,5
2016-05-24T05:07:39.606Z,5
2016-05-24T05:08:39.297Z,5
2016-05-24T05:09:39.612Z,10
2016-05-24T05:10:39.317Z,10
2016-05-24T05:11:39.617Z,5
2016-05-24T05:12:39.620Z,5
2016-05-24T05:13:39.654Z,5
2016-05-24T05:14:39.641Z,5
2016-05-24T05:15:39.347Z,5
2016-05-24T05:16:39.661Z,5
2016-05-24T05:17:39.508Z,5
2016-05-24T05:18:39.511Z,5
2016-05-24T05:19:39.686Z,5
2016-05-24T05:20:39.704Z,5
2016-05-24T05:21:39.535Z,5
2016-05-24T05:22:39.694Z,5
2016-05-24T05:23:39.541Z,5
2016-05-24T05:24:39.698Z,5
2016-05-24T05:25:39.561Z,5
2016-05-24T05:26:39.721Z,5
2016-05-24T05:27:39.723Z,5
2016-05-24T05:28:39.740Z,5
2016-05-24T05:29:39.571Z,0
2016-05-24T05:30:39.887Z,0
2016-05-24T05:31:39.593Z,0
2016-05-24T05:32:39.751Z,0
2016-05-24T05:33:39.755Z,5
2016-05-24T05:34:39.773Z,5
2016-05-24T05:35:39.775Z,5
2016-05-24T05:36:39.623Z,5
2016-05-24T05:37:39.797Z,5
2016-05-24T05:38:39.783Z,5
2016-05-24T05:39:39.645Z,5
2016-05-24T05:40:39.805Z,10
2016-05-24T05:41:39.651Z,10
2016-05-24T05:42:39.825Z,10
2016-05-24T05:43:39.656Z,10
2016-05-24T05:44:39.847Z,10
2016-05-24T05:45:39.693Z,5
2016-05-24T05:46:39.680Z,5
2016-05-24T05:47:39.854Z,5
2016-05-24T05:48:39.841Z,5
2016-05-24T05:49:39.861Z,5
2016-05-24T05:50:39.863Z,5
2016-05-24T05:51:39.881Z,5
2016-05-24T05:52:39.883Z,5
2016-05-24T05:53:39.871Z,10
2016-05-24T05:54:39.935Z,5
2016-05-24T05:55:39.891Z,5
2016-05-24T05:56:39.738Z,5
2016-05-24T05:57:39.929Z,5
2016-05-24T05:58:39.915Z,10
2016-05-24T05:59:39.918Z,10
2016-05-24T06:00:40.030Z,10
2016-05-24T06:01:39.923Z,10
2016-05-24T06:02:39.957Z,10
2016-05-24T06:03:39.944Z,15
2016-05-24T06:04:39.776Z,15
2016-05-24T06:05:39.793Z,15
2016-05-24T06:06:39.953Z,20
2016-05-24T06:07:39.986Z,15
2016-05-24T06:08:39.973Z,20
2016-05-24T06:09:39.663Z,15
2016-05-24T06:10:40.010Z,20
2016-05-24T06:11:41.623Z,20
2016-05-24T06:12:39.844Z,20
2016-05-24T06:13:40.002Z,20
2016-05-24T06:14:40.397Z,15
2016-05-24T06:15:40.461Z,15
2016-05-24T06:16:40.807Z,15
2016-05-24T06:17:40.513Z,15
2016-05-24T06:18:40.032Z,15
2016-05-24T06:19:40.035Z,15
2016-05-24T06:20:40.053Z,15
2016-05-24T06:21:40.040Z,20
2016-05-24T06:22:39.761Z,20
2016-05-24T06:23:40.060Z,20
2016-05-24T06:24:39.907Z,20
2016-05-24T06:25:40.082Z,20
2016-05-24T06:26:40.100Z,20
2016-05-24T06:27:40.087Z,20
2016-05-24T06:28:40.090Z,20
2016-05-24T06:29:39.937Z,20
2016-05-24T06:30:40.204Z,20
2016-05-24T06:31:40.113Z,20
2016-05-24T06:32:40.132Z,20
2016-05-24T06:33:40.119Z,20
2016-05-24T06:34:39.981Z,15
2016-05-24T06:35:39.984Z,15
2016-05-24T06:36:40.143Z,20
2016-05-24T06:37:39.864Z,20
2016-05-24T06:38:40.164Z,15
2016-05-24T06:39:40.151Z,15
2016-05-24T06:40:40.013Z,15
2016-05-24T06:41:40.031Z,15
2016-05-24T06:42:39.877Z,15
2016-05-24T06:43:40.192Z,15
2016-05-24T06:44:40.211Z,15
2016-05-24T06:45:40.245Z,15
2016-05-24T06:46:40.217Z,15
2016-05-24T06:47:40.203Z,15
2016-05-24T06:48:40.081Z,15
2016-05-24T06:49:40.069Z,15
2016-05-24T06:50:40.228Z,15
2016-05-24T06:51:39.933Z,15
2016-05-24T06:52:39.920Z,15
2016-05-24T06:53:40.094Z,15
2016-05-24T06:54:40.769Z,15
2016-05-24T06:55:40.272Z,15
2016-05-24T06:56:40.290Z,20
2016-05-24T06:57:40.418Z,20
2016-05-24T06:58:40.155Z,15
2016-05-24T06:59:40.283Z,15
2016-05-24T07:00:40.192Z,20
2016-05-24T07:01:40.288Z,20
2016-05-24T07:02:40.182Z,20
2016-05-24T07:03:40.309Z,20
2016-05-24T07:04:40.327Z,20
2016-05-24T07:05:40.315Z,20
2016-05-24T07:06:40.332Z,20
2016-05-24T07:07:40.351Z,20
2016-05-24T07:08:40.370Z,25
2016-05-24T07:09:40.341Z,25
2016-05-24T07:10:40.203Z,20
2016-05-24T07:11:40.237Z,20
2016-05-24T07:12:40.365Z,20
2016-05-24T07:13:40.212Z,20
2016-05-24T07:14:40.370Z,20
2016-05-24T07:15:40.247Z,20
2016-05-24T07:16:40.234Z,20
2016-05-24T07:17:40.394Z,20
2016-05-24T07:18:40.396Z,20
2016-05-24T07:19:40.336Z,20
2016-05-24T07:20:40.261Z,20
2016-05-24T07:21:40.264Z,20
2016-05-24T07:22:40.438Z,20
2016-05-24T07:23:40.285Z,20
2016-05-24T07:24:40.569Z,15
2016-05-24T07:25:40.463Z,15
2016-05-24T07:26:40.527Z,15
2016-05-24T07:27:40.296Z,20
2016-05-24T07:28:40.471Z,20
2016-05-24T07:29:40.379Z,20
2016-05-24T07:30:40.397Z,20
2016-05-24T07:31:40.337Z,20
2016-05-24T07:32:40.559Z,20
2016-05-24T07:33:40.484Z,20
2016-05-24T07:34:40.502Z,20
2016-05-24T07:35:40.629Z,20
2016-05-24T07:36:40.351Z,25
2016-05-24T07:37:40.385Z,25
2016-05-24T07:38:40.373Z,20
2016-05-24T07:39:40.531Z,20
2016-05-24T07:40:40.237Z,20
2016-05-24T07:41:40.661Z,25
2016-05-24T07:42:40.601Z,25
2016-05-24T07:43:40.432Z,25
2016-05-24T07:44:40.263Z,25
2016-05-24T07:45:41.001Z,20
2016-05-24T07:46:40.378Z,20
2016-05-24T07:47:40.646Z,20
2016-05-24T07:48:40.603Z,20
2016-05-24T07:49:40.589Z,25
2016-05-24T07:50:40.608Z,25
2016-05-24T07:51:40.611Z,25
2016-05-24T07:52:40.628Z,30
2016-05-24T07:53:40.756Z,30
2016-05-24T07:54:40.633Z,35
2016-05-24T07:55:40.558Z,35
2016-05-24T07:56:40.639Z,40
2016-05-24T07:57:40.502Z,40
2016-05-24T07:58:40.660Z,40
2016-05-24T07:59:40.460Z,35
2016-05-24T08:00:41.212Z,30
2016-05-24T08:01:40.699Z,25
2016-05-24T08:02:40.765Z,25
2016-05-24T08:03:40.690Z,25
2016-05-24T08:04:40.693Z,20
2016-05-24T08:05:40.554Z,20
2016-05-24T08:06:40.760Z,15
2016-05-24T08:07:40.731Z,15
2016-05-24T08:08:40.578Z,15
2016-05-24T08:09:40.581Z,15
2016-05-24T08:10:40.740Z,15
2016-05-24T08:11:40.757Z,15
2016-05-24T08:12:40.870Z,15
2016-05-24T08:13:40.748Z,15
2016-05-24T08:14:40.750Z,15
2016-05-24T08:15:40.706Z,20
2016-05-24T08:16:40.631Z,20
2016-05-24T08:17:40.478Z,25
2016-05-24T08:18:40.792Z,25
2016-05-24T08:19:40.825Z,30
2016-05-24T08:20:40.828Z,35
2016-05-24T08:21:40.817Z,40
2016-05-24T08:22:40.866Z,45
2016-05-24T08:23:40.837Z,40
2016-05-24T08:24:40.684Z,40
2016-05-24T08:25:40.889Z,40
2016-05-24T08:26:40.954Z,35
2016-05-24T08:27:41.035Z,35
2016-05-24T08:28:40.850Z,35
2016-05-24T08:29:40.978Z,30
2016-05-24T08:30:44.668Z,30
2016-05-24T08:31:40.874Z,30
2016-05-24T08:32:41.049Z,30
2016-05-24T08:33:40.848Z,30
2016-05-24T08:34:40.898Z,30
2016-05-24T08:35:40.979Z,25
2016-05-24T08:36:40.935Z,20
2016-05-24T08:37:40.937Z,20
2016-05-24T08:38:40.924Z,15
2016-05-24T08:39:40.926Z,15
2016-05-24T08:40:40.804Z,15
2016-05-24T08:41:40.932Z,15
2016-05-24T08:42:40.826Z,20
2016-05-24T08:43:40.798Z,20
2016-05-24T08:44:40.831Z,20
2016-05-24T08:45:41.021Z,25
2016-05-24T08:46:40.851Z,25
2016-05-24T08:47:41.089Z,25
2016-05-24T08:48:40.856Z,25
2016-05-24T08:49:41.000Z,25
2016-05-24T08:50:40.863Z,25
2016-05-24T08:51:40.865Z,25
2016-05-24T08:52:41.133Z,25
2016-05-24T08:53:41.042Z,25
2016-05-24T08:54:40.889Z,30
2016-05-24T08:55:40.907Z,30
2016-05-24T08:56:40.754Z,30
2016-05-24T08:57:40.803Z,30
2016-05-24T08:58:40.759Z,30
2016-05-24T08:59:41.090Z,35
2016-05-24T09:00:43.264Z,35
2016-05-24T09:01:41.080Z,30
2016-05-24T09:02:40.941Z,30
2016-05-24T09:03:41.117Z,30
2016-05-24T09:04:41.010Z,35
2016-05-24T09:05:41.152Z,35
2016-05-24T09:06:41.062Z,40
2016-05-24T09:07:41.127Z,35
2016-05-24T09:08:41.130Z,35
2016-05-24T09:09:41.148Z,30
2016-05-24T09:10:44.010Z,30
2016-05-24T09:11:41.154Z,30
2016-05-24T09:12:41.157Z,30
2016-05-24T09:13:41.174Z,30
2016-05-24T09:14:41.177Z,30
2016-05-24T09:15:42.305Z,30
2016-05-24T09:16:41.198Z,30
2016-05-24T09:17:41.139Z,30
2016-05-24T09:18:41.219Z,30
2016-05-24T09:19:41.065Z,25
2016-05-24T09:20:41.225Z,25
2016-05-24T09:21:41.228Z,25
2016-05-24T09:22:40.948Z,30
2016-05-24T09:23:41.170Z,30
2016-05-24T09:24:41.095Z,30
2016-05-24T09:25:43.317Z,35
2016-05-24T09:26:40.991Z,35
2016-05-24T09:27:41.274Z,35
2016-05-24T09:28:41.122Z,30
2016-05-24T09:29:40.967Z,35
2016-05-24T09:30:42.080Z,35
2016-05-24T09:31:41.395Z,35
2016-05-24T09:32:41.413Z,40
2016-05-24T09:33:41.307Z,35
2016-05-24T09:34:41.403Z,35
2016-05-24T09:35:44.296Z,35
2016-05-24T09:36:41.329Z,35
2016-05-24T09:37:41.427Z,35
2016-05-24T09:38:41.351Z,35
2016-05-24T09:39:41.354Z,35
2016-05-24T09:40:41.451Z,30
2016-05-24T09:41:41.234Z,30
2016-05-24T09:42:41.377Z,30
2016-05-24T09:43:41.380Z,30
2016-05-24T09:44:41.476Z,25
2016-05-24T09:45:48.214Z,25
2016-05-24T09:46:41.825Z,25
2016-05-24T09:47:41.423Z,30
2016-05-24T09:48:41.457Z,30
2016-05-24T09:49:41.427Z,35
2016-05-24T09:50:41.290Z,35
2016-05-24T09:51:41.573Z,40
2016-05-24T09:52:41.295Z,40
2016-05-24T09:53:41.298Z,45
2016-05-24T09:54:41.456Z,45
2016-05-24T09:55:41.506Z,50
2016-05-24T09:56:41.384Z,55
2016-05-24T09:57:41.167Z,60
2016-05-24T09:58:41.342Z,60
2016-05-24T09:59:41.486Z,65
2016-05-24T10:00:41.489Z,70
2016-05-24T10:01:41.616Z,75
2016-05-24T10:02:41.681Z,90
2016-05-24T10:03:41.216Z,90
2016-05-24T10:04:41.546Z,95
2016-05-24T10:05:41.407Z,95
2016-05-24T10:06:41.565Z,90
2016-05-24T10:07:41.434Z,70
2016-05-24T10:08:41.395Z,60
2016-05-24T10:09:41.498Z,50
2016-05-24T10:10:41.664Z,35
2016-05-24T10:11:41.726Z,30
2016-05-24T10:12:41.721Z,25
2016-05-24T10:13:41.716Z,25
2016-05-24T10:14:44.211Z,25
2016-05-24T10:15:42.332Z,25
2016-05-24T10:16:41.620Z,25
2016-05-24T10:17:41.861Z,25
2016-05-24T10:18:41.788Z,25
2016-05-24T10:19:41.668Z,25
2016-05-24T10:20:41.596Z,25
2016-05-24T10:21:43.928Z,25
2016-05-24T10:22:41.666Z,25
2016-05-24T10:23:41.951Z,30
2016-05-24T10:24:41.845Z,30
2016-05-24T10:25:41.536Z,30
2016-05-24T10:26:44.103Z,30
2016-05-24T10:27:41.809Z,30
2016-05-24T10:28:41.875Z,30
2016-05-24T10:29:41.784Z,30
2016-05-24T10:30:42.412Z,35
2016-05-24T10:31:41.587Z,35
2016-05-24T10:32:41.902Z,35
2016-05-24T10:33:41.764Z,40
2016-05-24T10:34:41.610Z,35
2016-05-24T10:35:41.769Z,40
2016-05-24T10:36:41.772Z,45
2016-05-24T10:37:41.790Z,45
2016-05-24T10:38:41.934Z,40
2016-05-24T10:39:41.795Z,30
2016-05-24T10:40:42.048Z,25
2016-05-24T10:41:41.957Z,25
2016-05-24T10:42:42.022Z,25
2016-05-24T10:43:42.087Z,25
2016-05-24T10:44:41.997Z,25
2016-05-24T10:45:41.780Z,20
2016-05-24T10:46:41.830Z,20
2016-05-24T10:47:41.848Z,20
2016-05-24T10:48:42.008Z,15
2016-05-24T10:49:41.838Z,15
2016-05-24T10:50:42.044Z,20
2016-05-24T10:51:42.031Z,20
2016-05-24T10:52:42.096Z,20
2016-05-24T10:53:42.036Z,20
2016-05-24T10:54:41.913Z,20
2016-05-24T10:55:42.057Z,20
2016-05-24T10:56:42.060Z,15
2016-05-24T10:57:41.922Z,15
2016-05-24T10:58:41.924Z,15
2016-05-24T10:59:41.771Z,15
2016-05-24T11:00:42.054Z,15
2016-05-24T11:01:42.105Z,15
2016-05-24T11:02:41.810Z,15
2016-05-24T11:03:42.110Z,20
2016-05-24T11:04:42.191Z,20
2016-05-24T11:05:41.818Z,20
2016-05-24T11:06:41.993Z,25
2016-05-24T11:07:42.027Z,25
2016-05-24T11:08:42.014Z,25
2016-05-24T11:09:42.157Z,25
2016-05-24T11:10:42.254Z,30
2016-05-24T11:11:42.022Z,30
2016-05-24T11:12:42.244Z,30
2016-05-24T11:13:42.042Z,35
2016-05-24T11:14:42.296Z,35
2016-05-24T11:15:42.345Z,35
2016-05-24T11:16:42.222Z,40
2016-05-24T11:17:42.226Z,45
2016-05-24T11:18:42.056Z,50
2016-05-24T11:19:42.169Z,55
2016-05-24T11:20:42.250Z,60
2016-05-24T11:21:42.143Z,60
2016-05-24T11:22:42.286Z,70
2016-05-24T11:23:42.102Z,70
2016-05-24T11:24:42.182Z,70
2016-05-24T11:25:42.122Z,70
2016-05-24T11:26:42.282Z,65
2016-05-24T11:27:42.315Z,55
2016-05-24T11:28:42.240Z,50
2016-05-24T11:29:42.149Z,45
2016-05-24T11:30:42.418Z,45
2016-05-24T11:31:42.326Z,40
2016-05-24T11:32:42.391Z,40
2016-05-24T11:33:42.332Z,40
2016-05-24T11:34:42.444Z,35
2016-05-24T11:35:42.352Z,35
2016-05-24T11:36:42.198Z,35
2016-05-24T11:37:42.279Z,40
2016-05-24T11:38:42.376Z,40
2016-05-24T11:39:42.067Z,40
2016-05-24T11:40:42.397Z,45
2016-05-24T11:41:42.228Z,45
2016-05-24T11:42:42.340Z,45
2016-05-24T11:43:42.405Z,45
2016-05-24T11:44:42.392Z,45
2016-05-24T11:45:42.769Z,50
2016-05-24T11:46:42.319Z,50
2016-05-24T11:47:42.447Z,55
2016-05-24T11:48:42.434Z,55
2016-05-24T11:49:42.297Z,55
2016-05-24T11:50:42.456Z,55
2016-05-24T11:51:42.457Z,60
2016-05-24T11:52:42.305Z,60
2016-05-24T11:53:42.480Z,55
2016-05-24T11:54:42.310Z,55
2016-05-24T11:55:42.328Z,55
2016-05-24T11:56:42.487Z,60
2016-05-24T11:57:42.490Z,65
2016-05-24T11:58:42.539Z,70
2016-05-24T11:59:42.510Z,65
2016-05-24T12:00:42.466Z,65
2016-05-24T12:01:42.532Z,60
2016-05-24T12:02:42.409Z,65
2016-05-24T12:03:42.381Z,70
2016-05-24T12:04:42.555Z,80
2016-05-24T12:05:42.637Z,90
2016-05-24T12:06:42.560Z,95
2016-05-24T12:07:42.657Z,85
2016-05-24T12:08:42.582Z,75
2016-05-24T12:09:42.523Z,70
2016-05-24T12:10:42.634Z,70
2016-05-24T12:11:42.637Z,75
2016-05-24T12:12:42.436Z,80
2016-05-24T12:13:42.611Z,80
2016-05-24T12:14:42.614Z,80
2016-05-24T12:15:42.350Z,80
2016-05-24T12:16:42.681Z,65
2016-05-24T12:17:42.544Z,60
2016-05-24T12:18:42.672Z,55
2016-05-24T12:19:42.705Z,55
2016-05-24T12:20:42.660Z,60
2016-05-24T12:21:42.851Z,60
2016-05-24T12:22:42.666Z,60
2016-05-24T12:23:42.778Z,60
2016-05-24T12:24:42.562Z,55
2016-05-24T12:25:42.800Z,55
2016-05-24T12:26:42.693Z,60
2016-05-24T12:27:42.726Z,60
2016-05-24T12:28:42.776Z,60
2016-05-24T12:29:42.826Z,60
2016-05-24T12:30:43.047Z,60
2016-05-24T12:31:42.644Z,55
2016-05-24T12:32:42.755Z,55
2016-05-24T12:33:42.446Z,55
2016-05-24T12:34:42.777Z,60
2016-05-24T12:35:42.624Z,60
2016-05-24T12:36:42.829Z,60
2016-05-24T12:37:42.785Z,60
2016-05-24T12:38:42.787Z,50
2016-05-24T12:39:42.696Z,45
2016-05-24T12:40:42.652Z,45
2016-05-24T12:41:42.795Z,45
2016-05-24T12:42:42.657Z,45
2016-05-24T12:43:42.675Z,45
2016-05-24T12:44:43.303Z,45
2016-05-24T12:45:43.104Z,50
2016-05-24T12:46:42.903Z,50
2016-05-24T12:47:42.858Z,45
2016-05-24T12:48:42.908Z,45
2016-05-24T12:49:44.723Z,45
2016-05-24T12:50:42.867Z,45
2016-05-24T12:51:42.729Z,45
2016-05-24T12:52:42.888Z,45
2016-05-24T12:53:42.734Z,45
2016-05-24T12:54:42.987Z,45
2016-05-24T12:55:42.911Z,50
2016-05-24T12:56:42.992Z,55
2016-05-24T12:57:42.916Z,60
2016-05-24T12:58:42.857Z,60
2016-05-24T12:59:42.625Z,55
2016-05-24T13:00:43.252Z,55
2016-05-24T13:01:42.943Z,55
2016-05-24T13:02:42.883Z,55
2016-05-24T13:03:42.963Z,55
2016-05-24T13:04:42.966Z,55
2016-05-24T13:05:42.969Z,55
2016-05-24T13:06:42.972Z,65
2016-05-24T13:07:42.974Z,65
2016-05-24T13:08:42.837Z,65
2016-05-24T13:09:42.542Z,65
2016-05-24T13:10:43.124Z,65
2016-05-24T13:11:43.017Z,60
2016-05-24T13:12:42.942Z,60
2016-05-24T13:13:42.898Z,55
2016-05-24T13:14:43.040Z,50
2016-05-24T13:15:43.684Z,45
2016-05-24T13:16:42.748Z,45
2016-05-24T13:17:43.048Z,45
2016-05-24T13:18:42.911Z,55
2016-05-24T13:19:42.945Z,55
2016-05-24T13:20:42.916Z,60
2016-05-24T13:21:43.153Z,55
2016-05-24T13:22:43.093Z,60
2016-05-24T13:23:43.221Z,60
2016-05-24T13:24:43.114Z,60
2016-05-24T13:25:42.960Z,60
2016-05-24T13:26:43.136Z,55
2016-05-24T13:27:43.201Z,55
2016-05-24T13:28:42.860Z,50
2016-05-24T13:29:43.206Z,45
2016-05-24T13:30:43.036Z,45
2016-05-24T13:31:43.071Z,40
2016-05-24T13:32:43.167Z,40
2016-05-24T13:33:42.841Z,40
2016-05-24T13:34:42.922Z,40
2016-05-24T13:35:43.019Z,45
2016-05-24T13:36:43.177Z,45
2016-05-24T13:37:43.196Z,55
2016-05-24T13:38:43.199Z,60
2016-05-24T13:39:43.107Z,65
2016-05-24T13:40:43.267Z,70
2016-05-24T13:41:43.238Z,65
2016-05-24T13:42:43.256Z,65
2016-05-24T13:43:43.212Z,65
2016-05-24T13:44:43.183Z,65
2016-05-24T13:45:42.920Z,65
2016-05-24T13:46:43.190Z,65
2016-05-24T13:47:43.254Z,65
2016-05-24T13:48:43.256Z,60
2016-05-24T13:49:43.150Z,60
2016-05-24T13:50:43.137Z,60
2016-05-24T13:51:43.280Z,60
2016-05-24T13:52:43.330Z,65
2016-05-24T13:53:43.395Z,65
2016-05-24T13:54:43.148Z,65
2016-05-24T13:55:43.572Z,65
2016-05-24T13:56:43.388Z,65
2016-05-24T13:57:43.343Z,65
2016-05-24T13:58:42.877Z,65
2016-05-24T13:59:43.864Z,60
2016-05-24T14:00:43.899Z,60
2016-05-24T14:01:43.261Z,60
2016-05-24T14:02:43.357Z,60
2016-05-24T14:03:43.374Z,60
2016-05-24T14:04:43.363Z,55
2016-05-24T14:05:43.460Z,55
2016-05-24T14:06:43.321Z,55
2016-05-24T14:07:43.308Z,55
2016-05-24T14:08:43.388Z,55
2016-05-24T14:09:43.407Z,55
2016-05-24T14:10:43.410Z,55
2016-05-24T14:11:43.100Z,55
2016-05-24T14:12:43.431Z,60
2016-05-24T14:13:43.292Z,60
2016-05-24T14:14:43.436Z,60
2016-05-24T14:15:44.689Z,60
2016-05-24T14:16:43.442Z,65
2016-05-24T14:17:43.304Z,65
2016-05-24T14:18:43.447Z,65
2016-05-24T14:19:43.465Z,65
2016-05-24T14:20:43.468Z,60
2016-05-24T14:21:43.174Z,60
2016-05-24T14:22:43.473Z,55
2016-05-24T14:23:43.508Z,50
2016-05-24T14:24:43.354Z,50
2016-05-24T14:25:43.497Z,50
2016-05-24T14:26:43.359Z,45
2016-05-24T14:27:43.347Z,45
2016-05-24T14:28:43.364Z,40